Terminal Aerodrome Forecast
Issued by NWS Jackson, MS

Home | Current Version | Previous Version | Text Only | Print | Product List | Glossary On
Versions: 1 2 3 4 5 6 7 8 9 10 11 12 13
000
FTUS44 KJAN 292325
TAFGLH
TAF
KGLH 292325Z 3000/3024 20005KT P6SM SCT050
     FM300900 23003KT 5SM BR SCT250
     FM301100 00000KT 2SM BR FEW090 SCT250
     FM301300 26003KT 3SM BR VCSH FEW090 SCT250
     FM301500 28005KT P6SM VCSH SCT250
     FM301900 12004KT P6SM SCT250=

USA.gov is the U.S. government's official web portal to all federal, state and local government web resources and services.